createdAt,value
2022-12-18T00:01:26.001Z,3.78
2022-12-18T00:03:54.581Z,3.55
2022-12-18T00:06:22.918Z,3.60
2022-12-18T00:08:50.578Z,3.80
2022-12-18T00:11:20.241Z,3.90
2022-12-18T00:13:48.778Z,4.38
2022-12-18T00:16:21.271Z,3.80
2022-12-18T00:18:49.807Z,4.93
2022-12-18T00:21:17.752Z,4.60
2022-12-18T00:23:46.245Z,4.03
2022-12-18T00:26:16.424Z,4.10
2022-12-18T00:28:44.279Z,4.10
2022-12-18T00:31:13.668Z,3.92
2022-12-18T00:33:42.962Z,3.92
2022-12-18T00:36:13.409Z,4.38
2022-12-18T00:38:41.790Z,3.75
2022-12-18T00:41:10.159Z,3.95
2022-12-18T00:43:37.539Z,4.85
2022-12-18T00:46:05.816Z,4.07
2022-12-18T00:48:33.743Z,4.30
2022-12-18T00:51:02.647Z,4.22
2022-12-18T00:53:30.085Z,4.38
2022-12-18T00:55:57.537Z,4.13
2022-12-18T00:58:25.027Z,4.03
2022-12-18T01:00:52.566Z,3.95
2022-12-18T01:03:20.063Z,3.78
2022-12-18T01:05:47.613Z,4.45
2022-12-18T01:08:16.404Z,3.50
2022-12-18T01:10:43.854Z,4.20
2022-12-18T01:13:11.320Z,4.00
2022-12-18T01:15:38.802Z,4.18
2022-12-18T01:18:07.316Z,4.00
2022-12-18T01:20:34.910Z,4.07
2022-12-18T01:23:02.356Z,4.47
2022-12-18T01:25:31.138Z,3.88
2022-12-18T01:27:58.611Z,4.47
2022-12-18T01:30:26.051Z,4.30
2022-12-18T01:32:53.521Z,3.95
2022-12-18T01:35:21.235Z,4.03
2022-12-18T01:37:48.694Z,4.10
2022-12-18T01:40:16.111Z,3.83
2022-12-18T01:42:44.915Z,4.13
2022-12-18T01:45:29.362Z,3.90
2022-12-18T01:47:59.698Z,4.28
2022-12-18T01:50:32.684Z,4.38
2022-12-18T01:53:04.020Z,4.45
2022-12-18T01:55:37.417Z,4.45
2022-12-18T01:58:06.791Z,4.05
2022-12-18T02:00:34.245Z,4.05
2022-12-18T02:03:01.923Z,4.03
2022-12-18T02:05:41.935Z,4.15
2022-12-18T02:08:14.080Z,4.25
2022-12-18T02:10:48.755Z,4.03
2022-12-18T02:13:22.648Z,4.00
2022-12-18T02:15:59.163Z,4.05
2022-12-18T02:18:31.663Z,4.70
2022-12-18T02:21:10.024Z,3.85
2022-12-18T02:23:49.888Z,3.72
2022-12-18T02:26:22.123Z,3.83
2022-12-18T02:28:54.539Z,4.45
2022-12-18T02:31:26.527Z,4.40
2022-12-18T02:34:00.589Z,4.68
2022-12-18T02:36:30.259Z,3.92
2022-12-18T02:39:00.129Z,3.97
2022-12-18T02:41:30.435Z,4.05
2022-12-18T02:43:59.611Z,3.83
2022-12-18T02:46:31.945Z,3.85
2022-12-18T02:49:07.571Z,4.30
2022-12-18T02:51:46.813Z,4.18
2022-12-18T02:54:23.409Z,4.30
2022-12-18T02:56:56.208Z,4.03
2022-12-18T02:59:31.439Z,4.85
2022-12-18T03:02:05.200Z,4.05
2022-12-18T03:04:39.962Z,4.35
2022-12-18T03:07:12.436Z,3.72
2022-12-18T03:09:45.464Z,4.18
2022-12-18T03:12:24.680Z,4.35
2022-12-18T03:14:56.995Z,4.15
2022-12-18T03:17:27.256Z,4.13
2022-12-18T03:19:57.783Z,3.90
2022-12-18T03:22:29.036Z,3.83
2022-12-18T03:24:59.073Z,4.20
2022-12-18T03:27:30.989Z,4.20
2022-12-18T03:30:08.285Z,4.50
2022-12-18T03:32:41.461Z,4.05
2022-12-18T03:35:18.922Z,4.18
2022-12-18T03:37:46.527Z,4.68
2022-12-18T03:40:14.166Z,3.80
2022-12-18T03:42:49.392Z,4.63
2022-12-18T03:45:24.144Z,4.03
2022-12-18T03:48:01.140Z,3.92
2022-12-18T03:50:36.032Z,3.97
2022-12-18T03:53:14.862Z,3.70
2022-12-18T03:55:44.060Z,3.63
2022-12-18T03:58:17.440Z,3.53
2022-12-18T04:00:45.863Z,3.30
2022-12-18T04:03:15.636Z,3.40
2022-12-18T04:05:45.529Z,3.70
2022-12-18T04:08:13.946Z,3.67
2022-12-18T04:10:41.451Z,3.55
2022-12-18T04:13:09.387Z,3.45
2022-12-18T04:15:39.707Z,3.42
2022-12-18T04:18:07.198Z,3.22
2022-12-18T04:20:34.648Z,2.90
2022-12-18T04:23:02.101Z,3.03
2022-12-18T04:25:29.561Z,3.45
2022-12-18T04:27:57.001Z,3.25
2022-12-18T04:30:24.426Z,3.53
2022-12-18T04:32:53.183Z,3.42
2022-12-18T04:35:20.658Z,3.80
2022-12-18T04:37:48.127Z,3.03
2022-12-18T04:40:15.678Z,3.20
2022-12-18T04:42:43.178Z,3.38
2022-12-18T04:45:11.290Z,3.13
2022-12-18T04:47:38.761Z,3.78
2022-12-18T04:50:08.617Z,3.20
2022-12-18T04:52:36.128Z,3.33
2022-12-18T04:55:04.106Z,3.20
2022-12-18T04:57:31.649Z,3.35
2022-12-18T04:59:59.108Z,3.30
2022-12-18T05:02:26.688Z,3.58
2022-12-18T05:04:54.195Z,3.40
2022-12-18T05:07:22.971Z,3.30
2022-12-18T05:09:50.408Z,3.60
2022-12-18T05:12:17.915Z,3.53
2022-12-18T05:14:45.340Z,3.67
2022-12-18T05:17:13.172Z,3.55
2022-12-18T05:19:40.660Z,3.47
2022-12-18T05:22:08.132Z,3.38
2022-12-18T05:24:37.194Z,3.67
2022-12-18T05:27:05.134Z,3.60
2022-12-18T05:29:32.653Z,3.30
2022-12-18T05:32:00.112Z,3.17
2022-12-18T05:34:27.534Z,3.17
2022-12-18T05:36:54.967Z,3.53
2022-12-18T05:39:22.417Z,3.35
2022-12-18T05:41:51.213Z,3.80
2022-12-18T05:44:18.835Z,3.20
2022-12-18T05:46:46.414Z,3.95
2022-12-18T05:49:13.913Z,2.90
2022-12-18T05:51:41.369Z,3.40
2022-12-18T05:54:09.484Z,3.25
2022-12-18T05:56:37.784Z,3.08
2022-12-18T05:59:06.591Z,3.63
2022-12-18T06:01:34.071Z,3.40
2022-12-18T06:04:01.602Z,3.00
2022-12-18T06:06:30.696Z,3.00
2022-12-18T06:08:59.520Z,3.13
2022-12-18T06:11:28.272Z,3.85
2022-12-18T06:13:59.065Z,3.50
2022-12-18T06:16:29.180Z,3.22
2022-12-18T06:18:58.425Z,3.10
2022-12-18T06:21:25.905Z,3.42
2022-12-18T06:23:53.494Z,4.20
2022-12-18T06:26:26.174Z,3.45
2022-12-18T06:28:55.505Z,3.55
2022-12-18T06:31:23.061Z,3.80
2022-12-18T06:33:51.951Z,3.67
2022-12-18T06:36:20.561Z,3.75
2022-12-18T06:38:48.047Z,3.83
2022-12-18T06:41:18.187Z,3.45
2022-12-18T06:43:46.556Z,3.70
2022-12-18T06:46:14.561Z,3.95
2022-12-18T06:48:42.430Z,4.07
2022-12-18T06:51:11.237Z,3.45
2022-12-18T06:53:38.956Z,3.60
2022-12-18T06:56:10.673Z,3.90
2022-12-18T06:58:38.656Z,3.90
2022-12-18T07:01:08.440Z,3.35
2022-12-18T07:03:36.176Z,3.55
2022-12-18T07:06:04.244Z,3.63
2022-12-18T07:08:33.998Z,3.75
2022-12-18T07:11:04.809Z,4.40
2022-12-18T07:13:32.426Z,3.78
2022-12-18T07:16:08.611Z,4.50
2022-12-18T07:18:40.456Z,3.55
2022-12-18T07:21:09.732Z,3.40
2022-12-18T07:23:39.117Z,4.07
2022-12-18T07:26:08.745Z,4.20
2022-12-18T07:28:37.391Z,3.45
2022-12-18T07:31:05.711Z,3.85
2022-12-18T07:33:35.478Z,3.97
2022-12-18T07:36:04.156Z,3.85
2022-12-18T07:38:31.871Z,3.75
2022-12-18T07:41:04.147Z,3.58
2022-12-18T07:43:34.783Z,3.40
2022-12-18T07:46:02.857Z,3.45
2022-12-18T07:48:30.588Z,3.97
2022-12-18T07:51:00.398Z,3.50
2022-12-18T07:53:28.123Z,3.88
2022-12-18T07:56:25.515Z,3.70
2022-12-18T07:58:49.172Z,3.95
2022-12-18T08:01:16.801Z,3.78
2022-12-18T08:03:44.882Z,3.50
2022-12-18T08:06:12.464Z,4.82
2022-12-18T08:08:41.514Z,5.13
2022-12-18T08:11:08.989Z,4.68
2022-12-18T08:13:36.683Z,4.07
2022-12-18T08:16:08.212Z,3.70
2022-12-18T08:18:36.688Z,3.92
2022-12-18T08:21:10.453Z,3.63
2022-12-18T08:23:42.716Z,3.78
2022-12-18T08:26:11.018Z,3.63
2022-12-18T08:28:38.585Z,3.97
2022-12-18T08:31:08.299Z,3.90
2022-12-18T08:33:37.083Z,3.53
2022-12-18T08:36:05.897Z,3.67
2022-12-18T08:38:33.635Z,3.80
2022-12-18T08:41:01.989Z,3.35
2022-12-18T08:43:47.086Z,3.22
2022-12-18T08:46:16.553Z,3.40
2022-12-18T08:48:44.539Z,2.97
2022-12-18T08:51:12.226Z,3.67
2022-12-18T08:53:40.272Z,3.72
2022-12-18T08:56:09.353Z,3.58
2022-12-18T08:58:36.795Z,4.00
2022-12-18T09:01:06.215Z,3.78
2022-12-18T09:03:35.436Z,3.40
2022-12-18T09:06:03.407Z,5.25
2022-12-18T09:08:30.999Z,3.45
2022-12-18T09:10:58.508Z,3.83
2022-12-18T09:13:25.977Z,3.58
2022-12-18T09:15:56.116Z,3.10
2022-12-18T09:18:24.831Z,3.72
2022-12-18T09:20:53.962Z,3.35
2022-12-18T09:23:22.021Z,3.53
2022-12-18T09:25:49.547Z,3.35
2022-12-18T09:28:19.357Z,3.67
2022-12-18T09:30:50.505Z,3.20
2022-12-18T09:33:18.481Z,3.35
2022-12-18T09:35:47.335Z,4.07
2022-12-18T09:38:18.888Z,3.28
2022-12-18T09:40:49.819Z,3.55
2022-12-18T09:43:20.740Z,3.35
2022-12-18T09:45:51.579Z,3.50
2022-12-18T09:48:24.392Z,3.13
2022-12-18T09:50:53.393Z,3.38
2022-12-18T09:53:27.101Z,3.42
2022-12-18T09:55:55.299Z,4.13
2022-12-18T09:58:28.512Z,3.60
2022-12-18T10:00:56.328Z,3.10
2022-12-18T10:03:24.428Z,3.65
2022-12-18T10:06:03.869Z,3.15
2022-12-18T10:08:43.954Z,3.10
2022-12-18T10:11:33.051Z,3.08
2022-12-18T10:14:08.978Z,2.72
2022-12-18T10:16:44.089Z,3.60
2022-12-18T10:19:27.055Z,3.17
2022-12-18T10:22:05.286Z,3.28
2022-12-18T10:24:39.652Z,3.80
2022-12-18T10:27:15.736Z,3.15
2022-12-18T10:29:44.550Z,2.97
2022-12-18T10:32:17.837Z,3.05
2022-12-18T10:34:48.887Z,3.20
2022-12-18T10:37:20.201Z,3.40
2022-12-18T10:40:09.235Z,3.50
2022-12-18T10:42:36.763Z,3.10
2022-12-18T10:45:14.453Z,3.60
2022-12-18T10:47:45.327Z,3.00
2022-12-18T10:50:26.094Z,3.97
2022-12-18T10:52:58.430Z,3.60
2022-12-18T10:55:33.175Z,3.28
2022-12-18T10:58:22.226Z,3.25
2022-12-18T11:01:05.871Z,4.60
2022-12-18T11:03:37.391Z,3.60
2022-12-18T11:06:07.878Z,4.20
2022-12-18T11:08:35.660Z,3.38
2022-12-18T11:11:06.044Z,3.50
2022-12-18T11:13:33.637Z,3.60
2022-12-18T11:16:01.446Z,4.35
2022-12-18T11:18:31.652Z,3.80
2022-12-18T11:21:02.089Z,3.67
2022-12-18T11:23:29.866Z,3.60
2022-12-18T11:25:59.868Z,3.95
2022-12-18T11:28:37.840Z,3.83
2022-12-18T11:31:28.334Z,3.50
2022-12-18T11:36:50.095Z,3.65
2022-12-18T11:39:22.499Z,3.78
2022-12-18T11:42:13.325Z,4.03
2022-12-18T11:44:48.656Z,4.13
2022-12-18T11:47:26.500Z,4.13
2022-12-18T11:49:57.832Z,4.00
2022-12-18T11:52:29.978Z,3.70
2022-12-18T11:55:02.608Z,4.03
2022-12-18T11:57:39.827Z,4.22
2022-12-18T12:00:16.794Z,4.38
2022-12-18T12:03:10.565Z,3.42
2022-12-18T12:05:50.895Z,4.10
2022-12-18T12:08:28.991Z,4.10
2022-12-18T12:11:06.632Z,3.65
2022-12-18T12:13:44.014Z,3.47
2022-12-18T12:16:20.049Z,4.10
2022-12-18T12:19:03.457Z,3.72
2022-12-18T12:21:40.547Z,3.50
2022-12-18T12:24:25.316Z,3.95
2022-12-18T12:27:02.310Z,3.70
2022-12-18T12:29:44.521Z,3.78
2022-12-18T12:32:29.521Z,4.15
2022-12-18T12:35:11.139Z,3.60
2022-12-18T12:37:50.470Z,3.97
2022-12-18T12:40:51.362Z,3.85
2022-12-18T12:43:23.204Z,4.20
2022-12-18T12:45:54.752Z,4.00
2022-12-18T12:48:35.093Z,4.10
2022-12-18T12:51:06.051Z,4.22
2022-12-18T12:53:40.168Z,4.13
2022-12-18T12:56:12.009Z,4.07
2022-12-18T12:58:50.475Z,4.75
2022-12-18T13:01:27.322Z,4.53
2022-12-18T13:04:05.129Z,5.15
2022-12-18T13:06:44.649Z,4.60
2022-12-18T13:09:12.607Z,4.53
2022-12-18T13:12:00.630Z,6.10
2022-12-18T13:14:34.532Z,4.75
2022-12-18T13:17:28.400Z,4.95
2022-12-18T13:20:08.304Z,5.15
2022-12-18T13:22:39.036Z,5.32
2022-12-18T13:25:38.287Z,5.80
2022-12-18T13:28:12.342Z,6.05
2022-12-18T13:30:56.948Z,5.80
2022-12-18T13:36:38.232Z,7.53
2022-12-18T13:39:28.924Z,6.18
2022-12-18T13:43:00.532Z,6.28
2022-12-18T13:45:42.424Z,5.80
2022-12-18T13:48:22.497Z,6.93
2022-12-18T13:51:01.438Z,6.43
2022-12-18T13:53:35.065Z,6.53
2022-12-18T13:56:03.852Z,6.28
2022-12-18T13:58:31.431Z,6.70
2022-12-18T14:01:00.161Z,6.78
2022-12-18T14:03:30.572Z,6.47
2022-12-18T14:06:03.066Z,7.32
2022-12-18T14:08:39.578Z,7.93
2022-12-18T14:11:08.610Z,5.93
2022-12-18T14:13:43.154Z,7.00
2022-12-18T14:16:15.918Z,7.28
2022-12-18T14:18:47.093Z,6.75
2022-12-18T14:21:24.731Z,6.72
2022-12-18T14:24:14.043Z,6.90
2022-12-18T14:26:42.281Z,6.85
2022-12-18T14:29:25.478Z,6.72
2022-12-18T14:32:18.310Z,6.97
2022-12-18T14:34:47.498Z,6.63
2022-12-18T14:37:16.436Z,6.18
2022-12-18T14:39:57.484Z,7.07
2022-12-18T14:42:28.730Z,6.93
2022-12-18T14:45:29.920Z,7.55
2022-12-18T14:47:57.461Z,7.07
2022-12-18T14:50:25.336Z,7.47
2022-12-18T14:52:53.111Z,6.65
2022-12-18T14:55:23.272Z,7.45
2022-12-18T14:57:53.158Z,8.13
2022-12-18T15:00:23.022Z,7.18
2022-12-18T15:02:54.812Z,7.63
2022-12-18T15:05:28.341Z,8.63
2022-12-18T15:07:57.611Z,8.35
2022-12-18T15:10:28.358Z,7.32
2022-12-18T15:13:10.080Z,9.63
2022-12-18T15:15:48.667Z,8.25
2022-12-18T15:18:18.858Z,8.15
2022-12-18T15:20:49.182Z,8.15
2022-12-18T15:23:19.472Z,9.00
2022-12-18T15:25:49.902Z,8.57
2022-12-18T15:28:25.118Z,8.23
2022-12-18T15:31:05.012Z,8.02
2022-12-18T15:33:34.750Z,8.70
2022-12-18T15:36:04.733Z,9.40
2022-12-18T15:38:32.626Z,8.32
2022-12-18T15:41:01.700Z,9.07
2022-12-18T15:43:35.599Z,8.82
2022-12-18T15:46:05.139Z,9.80
2022-12-18T15:48:34.553Z,10.13
2022-12-18T15:51:02.356Z,8.43
2022-12-18T15:53:32.994Z,9.90
2022-12-18T15:56:19.131Z,9.98
2022-12-18T15:58:46.547Z,9.90
2022-12-18T16:01:27.886Z,9.80
2022-12-18T16:03:55.638Z,10.70
2022-12-18T16:06:23.782Z,9.55
2022-12-18T16:08:51.563Z,10.85
2022-12-18T16:11:38.794Z,10.13
2022-12-18T16:14:08.547Z,9.65
2022-12-18T16:16:35.995Z,9.88
2022-12-18T16:19:03.445Z,9.88
2022-12-18T16:21:34.081Z,9.68
2022-12-18T16:24:01.752Z,9.77
2022-12-18T16:26:30.572Z,9.82
2022-12-18T16:28:57.991Z,10.27
2022-12-18T16:31:25.457Z,10.95
2022-12-18T16:34:14.744Z,10.18
2022-12-18T16:36:42.190Z,10.38
2022-12-18T16:39:09.623Z,9.98
2022-12-18T16:41:38.420Z,10.85
2022-12-18T16:44:05.967Z,10.15
2022-12-18T16:46:33.515Z,11.15
2022-12-18T16:49:01.597Z,12.18
2022-12-18T16:51:29.668Z,11.10
2022-12-18T16:53:57.825Z,10.57
2022-12-18T16:56:25.788Z,10.45
2022-12-18T16:58:56.567Z,10.20
2022-12-18T17:01:24.758Z,11.02
2022-12-18T17:03:56.110Z,11.82
2022-12-18T17:06:24.298Z,12.75
2022-12-18T17:08:56.380Z,11.38
2022-12-18T17:11:24.857Z,11.50
2022-12-18T17:13:54.723Z,10.98
2022-12-18T17:16:23.071Z,11.88
2022-12-18T17:18:50.958Z,11.75
2022-12-18T17:21:18.459Z,11.32
2022-12-18T17:23:46.001Z,12.10
2022-12-18T17:26:14.541Z,11.77
2022-12-18T17:28:42.985Z,10.38
2022-12-18T17:31:17.671Z,11.48
2022-12-18T17:33:45.450Z,12.70
2022-12-18T17:36:13.050Z,10.77
2022-12-18T17:38:40.988Z,11.60
2022-12-18T17:41:11.191Z,11.00
2022-12-18T17:43:45.612Z,11.75
2022-12-18T17:46:16.001Z,11.10
2022-12-18T17:48:43.451Z,12.15
2022-12-18T17:51:45.442Z,13.80
2022-12-18T17:54:12.980Z,11.98
2022-12-18T17:56:40.603Z,13.02
2022-12-18T17:59:08.772Z,11.38
2022-12-18T18:01:44.026Z,11.05
2022-12-18T18:04:12.762Z,12.73
2022-12-18T18:06:40.329Z,12.57
2022-12-18T18:09:08.230Z,12.73
2022-12-18T18:12:02.282Z,11.80
2022-12-18T18:14:29.953Z,11.10
2022-12-18T18:17:04.085Z,13.70
2022-12-18T18:19:33.296Z,12.38
2022-12-18T18:22:01.366Z,12.05
2022-12-18T18:24:29.578Z,12.77
2022-12-18T18:26:59.347Z,13.10
2022-12-18T18:29:30.158Z,11.73
2022-12-18T18:32:00.108Z,11.32
2022-12-18T18:34:30.179Z,12.25
2022-12-18T18:37:01.088Z,13.43
2022-12-18T18:39:28.859Z,12.30
2022-12-18T18:41:56.396Z,12.82
2022-12-18T18:44:25.969Z,12.50
2022-12-18T18:46:55.005Z,13.75
2022-12-18T18:49:26.939Z,12.30
2022-12-18T18:51:55.312Z,12.88
2022-12-18T18:54:22.752Z,12.07
2022-12-18T18:59:38.037Z,12.00
2022-12-18T19:02:05.859Z,11.90
2022-12-18T19:04:36.371Z,12.50
2022-12-18T19:07:05.976Z,14.52
2022-12-18T19:09:33.531Z,13.85
2022-12-18T19:12:19.012Z,13.20
2022-12-18T19:14:46.634Z,13.10
2022-12-18T19:17:14.076Z,12.73
2022-12-18T19:19:43.069Z,13.55
2022-12-18T19:22:10.916Z,13.40
2022-12-18T19:24:38.635Z,12.73
2022-12-18T19:27:06.113Z,12.48
2022-12-18T19:29:33.603Z,12.68
2022-12-18T19:32:01.388Z,11.98
2022-12-18T19:34:28.874Z,14.00
2022-12-18T19:37:00.122Z,13.68
2022-12-18T19:39:28.144Z,14.25
2022-12-18T19:41:55.631Z,12.80
2022-12-18T19:44:23.081Z,12.68
2022-12-18T19:46:51.676Z,13.73
2022-12-18T19:49:22.829Z,12.88
2022-12-18T19:51:50.720Z,12.25
2022-12-18T19:54:19.654Z,11.52
2022-12-18T19:56:47.473Z,13.27
2022-12-18T19:59:16.432Z,11.70
2022-12-18T20:01:43.995Z,12.32
2022-12-18T20:04:11.612Z,13.25
2022-12-18T20:06:48.264Z,12.00
2022-12-18T20:09:16.306Z,11.82
2022-12-18T20:11:45.400Z,11.52
2022-12-18T20:14:19.647Z,12.68
2022-12-18T20:16:51.908Z,13.10
2022-12-18T20:19:20.275Z,13.45
2022-12-18T20:21:48.280Z,11.75
2022-12-18T20:24:15.796Z,13.68
2022-12-18T20:26:44.665Z,11.75
2022-12-18T20:29:12.214Z,12.02
2022-12-18T20:31:39.744Z,12.15
2022-12-18T20:34:07.246Z,12.70
2022-12-18T20:36:36.375Z,12.35
2022-12-18T20:39:07.560Z,11.23
2022-12-18T20:41:37.994Z,12.73
2022-12-18T20:44:21.441Z,10.40
2022-12-18T20:46:50.327Z,11.65
2022-12-18T20:49:17.980Z,11.32
2022-12-18T20:51:45.423Z,12.88
2022-12-18T20:54:12.864Z,13.50
2022-12-18T20:56:40.296Z,13.40
2022-12-18T20:59:10.532Z,13.13
2022-12-18T21:01:38.805Z,12.50
2022-12-18T21:04:08.967Z,12.45
2022-12-18T21:06:36.943Z,12.40
2022-12-18T21:09:12.551Z,12.07
2022-12-18T21:11:57.531Z,12.25
2022-12-18T21:14:28.336Z,13.23
2022-12-18T21:16:56.736Z,11.95
2022-12-18T21:19:27.092Z,13.48
2022-12-18T21:21:55.944Z,12.00
2022-12-18T21:24:24.124Z,13.77
2022-12-18T21:26:52.478Z,11.90
2022-12-18T21:29:22.079Z,11.65
2022-12-18T21:31:52.363Z,11.43
2022-12-18T21:34:22.858Z,12.90
2022-12-18T21:36:50.807Z,13.20
2022-12-18T21:39:18.847Z,12.68
2022-12-18T21:42:18.278Z,11.35
2022-12-18T21:44:48.710Z,10.48
2022-12-18T21:47:22.586Z,11.50
2022-12-18T21:49:50.972Z,12.38
2022-12-18T21:52:18.444Z,10.52
2022-12-18T21:54:45.873Z,11.85
2022-12-18T21:57:13.983Z,12.55
2022-12-18T21:59:43.277Z,11.60
2022-12-18T22:02:14.026Z,11.82
2022-12-18T22:04:43.299Z,13.50
2022-12-18T22:07:11.637Z,12.10
2022-12-18T22:09:39.465Z,11.95
2022-12-18T22:12:08.853Z,13.65
2022-12-18T22:14:36.358Z,12.85
2022-12-18T22:17:03.985Z,12.15
2022-12-18T22:19:31.456Z,13.40
2022-12-18T22:22:00.279Z,12.13
2022-12-18T22:24:29.089Z,12.57
2022-12-18T22:27:02.160Z,11.10
2022-12-18T22:29:47.911Z,12.40
2022-12-18T22:32:18.934Z,12.47
2022-12-18T22:35:03.246Z,13.02
2022-12-18T22:37:35.008Z,12.48
2022-12-18T22:40:03.262Z,13.65
2022-12-18T22:42:32.437Z,13.50
2022-12-18T22:45:00.217Z,13.55
2022-12-18T22:47:30.209Z,13.80
2022-12-18T22:49:58.213Z,13.63
2022-12-18T22:52:25.880Z,13.40
2022-12-18T22:54:55.040Z,12.90
2022-12-18T22:57:23.302Z,12.50
2022-12-18T22:59:51.223Z,14.05
2022-12-18T23:02:19.398Z,12.75
2022-12-18T23:04:47.428Z,13.98
2022-12-18T23:07:14.912Z,13.68
2022-12-18T23:09:42.415Z,12.73
2022-12-18T23:12:15.988Z,12.90
2022-12-18T23:14:43.743Z,12.93
2022-12-18T23:17:11.260Z,14.02
2022-12-18T23:19:41.653Z,12.70
2022-12-18T23:22:11.928Z,13.38
2022-12-18T23:24:39.577Z,13.15
2022-12-18T23:27:11.368Z,14.70
2022-12-18T23:29:41.168Z,13.10
2022-12-18T23:32:09.009Z,13.30
2022-12-18T23:34:36.529Z,12.90
2022-12-18T23:37:04.107Z,13.05
2022-12-18T23:39:31.596Z,12.68
2022-12-18T23:41:59.446Z,13.13
2022-12-18T23:44:27.399Z,12.77
2022-12-18T23:46:56.407Z,12.93
2022-12-18T23:49:24.343Z,14.15
2022-12-18T23:51:51.862Z,12.55
2022-12-18T23:54:23.220Z,13.38
2022-12-18T23:57:01.016Z,13.18
2022-12-18T23:59:28.478Z,14.10
